Time;durP1;ratioP1;P1;durP2;ratioP2;P2;SDS_P1;SDS_P2;PMS_P1;PMS_P2;Temp;Humidity;BMP_temperature;BMP_pressure;BME280_temperature;BME280_humidity;BME280_pressure;Samples;Min_cycle;Max_cycle;Signal;HPM_P1;HPM_P2
2023/08/17 00:01:04;;;;;;;;;;;;;;;24.45;66.83;101599.50;3970181;29;20031;-67
2023/08/17 00:03:05;;;;;;;;;;;;;;;24.45;66.95;101598.66;3969540;29;20022;-67
2023/08/17 00:05:08;;;;;;;;;;;;;;;24.42;66.76;101604.66;3968911;29;20448;-68
2023/08/17 00:07:12;;;;;;;;;;;;;;;24.40;67.08;101593.88;3968646;29;19937;-68
2023/08/17 00:09:16;;;;;;;;;;;;;;;24.37;66.61;101594.38;3968782;29;20012;-67
2023/08/17 00:11:18;;;;;;;;;;;;;;;24.35;67.12;101588.28;3968531;29;19940;-68
2023/08/17 00:13:20;;;;;;;;;;;;;;;24.33;66.97;101589.63;3969411;29;20017;-68
2023/08/17 00:15:22;;;;;;;;;;;;;;;24.34;67.10;101589.38;3968418;29;20032;-68
2023/08/17 00:17:24;;;;;;;;;;;;;;;24.32;67.27;101585.19;3968242;29;20033;-68
2023/08/17 00:19:29;;;;;;;;;;;;;;;24.31;66.98;101586.25;3968142;29;20472;-68
2023/08/17 00:21:31;;;;;;;;;;;;;;;24.29;67.42;101581.84;3968480;29;20024;-67
2023/08/17 00:23:33;;;;;;;;;;;;;;;24.29;67.10;101569.94;3958182;29;20036;-68
2023/08/17 00:25:36;;;;;;;;;;;;;;;24.26;66.58;101564.91;3966665;29;20052;-68
2023/08/17 00:27:38;;;;;;;;;;;;;;;24.24;66.55;101556.06;3968504;29;20037;-68
2023/08/17 00:29:40;;;;;;;;;;;;;;;24.22;66.71;101558.25;3958239;29;20020;-68
2023/08/17 00:31:42;;;;;;;;;;;;;;;24.19;67.30;101540.25;3968442;29;20393;-68
2023/08/17 00:33:44;;;;;;;;;;;;;;;24.19;67.36;101558.72;3966858;29;20038;-69
2023/08/17 00:35:46;;;;;;;;;;;;;;;24.15;67.08;101555.63;3969157;29;20024;-70
2023/08/17 00:37:47;;;;;;;;;;;;;;;24.14;67.22;101555.84;3968728;29;20028;-68
2023/08/17 00:39:49;;;;;;;;;;;;;;;24.11;66.84;101558.03;3958322;29;19937;-67
2023/08/17 00:41:53;;;;;;;;;;;;;;;24.10;67.31;101563.81;3969264;29;20370;-67
2023/08/17 00:43:55;;;;;;;;;;;;;;;24.08;67.31;101552.19;3968102;29;20021;-68
2023/08/17 00:45:57;;;;;;;;;;;;;;;24.07;67.18;101556.03;3968048;29;20015;-68
2023/08/17 00:47:58;;;;;;;;;;;;;;;24.07;67.75;101550.50;3958526;29;19973;-67
2023/08/17 00:50:01;;;;;;;;;;;;;;;24.05;67.56;101558.19;3966706;29;20028;-68
2023/08/17 00:52:04;;;;;;;;;;;;;;;24.01;67.32;101552.34;3973815;29;20395;-68
2023/08/17 00:54:05;;;;;;;;;;;;;;;24.01;67.09;101549.59;3967843;29;20035;-68
2023/08/17 00:56:08;;;;;;;;;;;;;;;24.00;67.50;101547.09;3967623;29;20012;-67
2023/08/17 00:58:11;;;;;;;;;;;;;;;23.99;67.27;101553.69;3968141;29;20020;-68
2023/08/17 01:00:15;;;;;;;;;;;;;;;23.98;67.51;101552.84;3968068;29;20016;-68
2023/08/17 01:02:20;;;;;;;;;;;;;;;23.98;67.31;101560.25;3968167;29;20039;-68
2023/08/17 01:04:22;;;;;;;;;;;;;;;23.97;67.25;101553.91;3973484;29;20032;-68
2023/08/17 01:06:24;;;;;;;;;;;;;;;23.95;66.79;101560.75;3968016;29;20379;-68
2023/08/17 01:08:26;;;;;;;;;;;;;;;23.93;66.65;101561.88;3967876;29;20024;-68
2023/08/17 01:10:28;;;;;;;;;;;;;;;23.93;67.50;101558.25;3973075;29;20032;-69
2023/08/17 01:12:31;;;;;;;;;;;;;;;23.91;66.95;101552.97;3967897;29;20356;-69
2023/08/17 01:14:37;;;;;;;;;;;;;;;23.88;66.21;101555.41;3965469;29;20067;-68
2023/08/17 01:16:56;;;;;;;;;;;;;;;23.85;66.80;101553.97;3967465;29;20028;-68
2023/08/17 01:18:58;;;;;;;;;;;;;;;23.82;66.70;101551.66;3968500;29;20023;-68
2023/08/17 01:21:00;;;;;;;;;;;;;;;23.82;67.03;101548.06;3965498;29;20025;-68
2023/08/17 01:23:04;;;;;;;;;;;;;;;23.80;67.13;101547.50;3966547;29;20028;-68
2023/08/17 01:25:07;;;;;;;;;;;;;;;23.78;67.56;101544.97;3967945;29;20453;-68
2023/08/17 01:27:11;;;;;;;;;;;;;;;23.77;67.34;101536.94;3973145;29;20028;-68
2023/08/17 01:29:13;;;;;;;;;;;;;;;23.76;67.16;101547.13;3973836;29;20047;-68
2023/08/17 01:31:16;;;;;;;;;;;;;;;23.75;67.59;101549.06;3966672;29;20036;-68
2023/08/17 01:33:20;;;;;;;;;;;;;;;23.73;66.98;101554.00;3966393;29;19929;-68
2023/08/17 01:35:25;;;;;;;;;;;;;;;23.72;66.94;101548.72;3969353;29;20054;-68
2023/08/17 01:37:27;;;;;;;;;;;;;;;23.69;66.76;101547.28;3976230;29;20480;-68
2023/08/17 01:39:33;;;;;;;;;;;;;;;23.68;67.37;101551.13;3969153;29;20016;-67
2023/08/17 01:41:35;;;;;;;;;;;;;;;23.66;67.11;101545.00;3971050;29;20037;-68
2023/08/17 01:43:37;;;;;;;;;;;;;;;23.65;67.31;101543.34;3970593;29;20028;-67
2023/08/17 01:45:40;;;;;;;;;;;;;;;23.63;67.12;101542.75;3970703;29;20049;-67
2023/08/17 01:47:42;;;;;;;;;;;;;;;23.63;67.27;101545.50;3970862;29;20441;-68
2023/08/17 01:49:44;;;;;;;;;;;;;;;23.61;67.22;101544.91;3971132;29;20053;-68
2023/08/17 01:51:46;;;;;;;;;;;;;;;23.60;67.48;101542.41;3970577;29;20024;-67
2023/08/17 01:53:48;;;;;;;;;;;;;;;23.58;66.99;101550.91;3975865;29;19972;-68
2023/08/17 01:55:52;;;;;;;;;;;;;;;23.56;67.38;101542.91;3972055;29;20015;-68
2023/08/17 01:57:54;;;;;;;;;;;;;;;23.54;67.12;101547.81;3970106;29;20558;-68
2023/08/17 01:59:56;;;;;;;;;;;;;;;23.53;67.34;101550.81;3968178;29;20411;-68
2023/08/17 02:01:58;;;;;;;;;;;;;;;23.52;67.11;101551.91;3969540;29;20130;-68
2023/08/17 02:04:02;;;;;;;;;;;;;;;23.51;67.04;101552.97;3971139;29;20016;-69
2023/08/17 02:06:06;;;;;;;;;;;;;;;23.49;67.13;101549.63;3970656;29;19937;-69
2023/08/17 02:08:08;;;;;;;;;;;;;;;23.48;67.44;101543.28;3970549;29;20032;-69
2023/08/17 02:10:10;;;;;;;;;;;;;;;23.46;67.24;101539.91;3970669;29;20111;-68
2023/08/17 02:12:14;;;;;;;;;;;;;;;23.45;67.22;101545.66;3971856;29;20024;-69
2023/08/17 02:14:16;;;;;;;;;;;;;;;23.42;67.14;101544.25;3960681;30;20385;-69
2023/08/17 02:16:17;;;;;;;;;;;;;;;23.41;67.14;101542.56;3970115;29;20016;-68
2023/08/17 02:18:19;;;;;;;;;;;;;;;23.41;67.66;101547.25;3971416;29;19933;-68
2023/08/17 02:20:21;;;;;;;;;;;;;;;23.40;67.22;101543.66;3969059;29;20031;-68
2023/08/17 02:22:24;;;;;;;;;;;;;;;23.37;66.81;101542.22;3970065;29;20043;-69
2023/08/17 02:24:26;;;;;;;;;;;;;;;23.35;67.14;101546.31;3968846;29;20032;-68
2023/08/17 02:26:30;;;;;;;;;;;;;;;23.34;67.13;101547.41;3970322;29;20036;-68
2023/08/17 02:28:33;;;;;;;;;;;;;;;23.31;67.28;101543.19;3975324;29;20027;-68
2023/08/17 02:30:35;;;;;;;;;;;;;;;23.31;67.08;101545.13;3970180;29;20040;-68
2023/08/17 02:32:37;;;;;;;;;;;;;;;23.28;66.70;101546.44;3968899;29;20442;-68
2023/08/17 02:34:39;;;;;;;;;;;;;;;23.26;67.10;101553.25;3970189;29;19929;-68
2023/08/17 02:36:41;;;;;;;;;;;;;;;23.24;67.01;101548.00;3970081;29;20020;-68
2023/08/17 02:38:44;;;;;;;;;;;;;;;23.22;67.29;101544.66;3960349;30;20037;-67
2023/08/17 02:40:44;;;;;;;;;;;;;;;23.21;67.00;101537.47;3968619;29;20032;-68
2023/08/17 02:42:47;;;;;;;;;;;;;;;23.20;67.58;101538.56;3969949;29;19964;-67
2023/08/17 02:44:50;;;;;;;;;;;;;;;23.19;67.44;101534.94;3969858;29;20016;-67
2023/08/17 02:46:51;;;;;;;;;;;;;;;23.18;67.12;101532.44;3969147;29;20016;-68
2023/08/17 02:48:53;;;;;;;;;;;;;;;23.16;67.22;101529.09;3970056;29;20604;-68
2023/08/17 02:50:55;;;;;;;;;;;;;;;23.13;67.31;101524.88;3968466;29;20484;-68
2023/08/17 02:52:57;;;;;;;;;;;;;;;23.13;67.64;101524.06;3970644;29;20029;-67
2023/08/17 02:54:59;;;;;;;;;;;;;;;23.12;67.29;101512.22;3970340;29;20489;-68
2023/08/17 02:57:02;;;;;;;;;;;;;;;23.12;67.40;101512.22;3974658;29;20060;-67
2023/08/17 02:59:04;;;;;;;;;;;;;;;23.11;67.24;101513.28;3969690;29;20020;-67
2023/08/17 03:01:08;;;;;;;;;;;;;;;23.08;66.83;101513.75;3969272;29;20033;-67
2023/08/17 03:03:10;;;;;;;;;;;;;;;23.07;66.94;101502.94;3969543;29;20020;-68
2023/08/17 03:05:12;;;;;;;;;;;;;;;23.03;66.85;101503.44;3969447;29;20020;-68
2023/08/17 03:07:14;;;;;;;;;;;;;;;23.02;67.48;101507.28;3969223;29;20495;-68
2023/08/17 03:09:16;;;;;;;;;;;;;;;23.02;67.86;101510.06;3969453;29;20460;-68
2023/08/17 03:11:17;;;;;;;;;;;;;;;23.00;67.45;101517.69;3967994;29;20040;-67
2023/08/17 03:13:19;;;;;;;;;;;;;;;23.00;67.80;101520.44;3969695;29;19929;-67
2023/08/17 03:15:21;;;;;;;;;;;;;;;23.01;66.94;101519.38;3970321;29;19936;-67
2023/08/17 03:17:25;;;;;;;;;;;;;;;22.99;66.77;101531.72;3960096;29;20495;-69
2023/08/17 03:19:27;;;;;;;;;;;;;;;22.98;66.83;101521.78;3967868;29;20024;-69
2023/08/17 03:21:29;;;;;;;;;;;;;;;22.95;66.74;101522.28;3974869;29;20391;-68
2023/08/17 03:23:31;;;;;;;;;;;;;;;22.94;66.90;101528.84;3953667;29;19929;-68
2023/08/17 03:25:33;;;;;;;;;;;;;;;22.93;67.26;101528.03;3969516;29;20019;-67
2023/08/17 03:27:35;;;;;;;;;;;;;;;22.93;67.19;101530.78;3969804;29;20040;-69
2023/08/17 03:29:38;;;;;;;;;;;;;;;22.90;67.07;101519.38;3974694;29;20036;-69
2023/08/17 03:31:41;;;;;;;;;;;;;;;22.89;66.74;101517.72;3968571;29;20009;-69
2023/08/17 03:33:45;;;;;;;;;;;;;;;22.88;67.05;101527.06;3969466;29;19960;-68
2023/08/17 03:35:48;;;;;;;;;;;;;;;22.87;67.15;101512.47;3971446;29;20380;-69
2023/08/17 03:37:50;;;;;;;;;;;;;;;22.85;67.24;101507.19;3970354;29;20463;-69
2023/08/17 03:39:53;;;;;;;;;;;;;;;22.85;67.03;101506.31;3968681;29;20024;-68
2023/08/17 03:41:55;;;;;;;;;;;;;;;22.83;67.35;101512.06;3982218;29;20036;-68
2023/08/17 03:43:57;;;;;;;;;;;;;;;22.82;67.72;101515.94;3982701;29;20452;-67
2023/08/17 03:46:00;;;;;;;;;;;;;;;22.79;66.98;101508.16;3988818;29;19933;-68
2023/08/17 03:48:04;;;;;;;;;;;;;;;22.82;67.04;101521.44;3989597;29;20475;-67
2023/08/17 03:50:08;;;;;;;;;;;;;;;22.80;66.95;101514.47;3988575;29;20063;-67
2023/08/17 03:52:10;;;;;;;;;;;;;;;22.79;66.89;101518.31;3984027;29;20036;-67
2023/08/17 03:54:12;;;;;;;;;;;;;;;22.78;66.74;101513.91;3983238;29;20042;-68
2023/08/17 03:56:15;;;;;;;;;;;;;;;22.76;66.62;101507.75;3968839;29;19933;-67
2023/08/17 03:58:18;;;;;;;;;;;;;;;22.75;67.15;101506.94;3958591;29;19951;-67
2023/08/17 04:00:20;;;;;;;;;;;;;;;22.74;67.36;101508.00;3952446;29;20049;-68
2023/08/17 04:02:29;;;;;;;;;;;;;;;22.74;66.89;101498.91;3952596;29;20024;-67
2023/08/17 04:04:31;;;;;;;;;;;;;;;22.72;66.96;101490.06;3967987;29;20025;-68
2023/08/17 04:06:35;;;;;;;;;;;;;;;22.70;67.07;101489.47;3968170;29;19933;-68
2023/08/17 04:08:37;;;;;;;;;;;;;;;22.70;66.64;101497.75;3967756;29;20028;-67
2023/08/17 04:10:39;;;;;;;;;;;;;;;22.67;67.06;101494.38;3967494;29;20024;-68
2023/08/17 04:12:41;;;;;;;;;;;;;;;22.67;67.12;101499.88;3959079;29;20020;-67
2023/08/17 04:14:42;;;;;;;;;;;;;;;22.66;67.17;101489.09;3967970;29;20019;-68
2023/08/17 04:16:44;;;;;;;;;;;;;;;22.66;66.81;101489.09;3969070;29;20610;-68
2023/08/17 04:18:46;;;;;;;;;;;;;;;22.65;66.65;101493.78;3969518;29;20027;-68
2023/08/17 04:20:48;;;;;;;;;;;;;;;22.63;66.67;101497.84;3968577;29;20001;-68
2023/08/17 04:22:53;;;;;;;;;;;;;;;22.62;66.60;101491.50;3973963;29;20039;-68
2023/08/17 04:24:55;;;;;;;;;;;;;;;22.62;67.02;101493.44;3969695;29;20039;-68
2023/08/17 04:26:58;;;;;;;;;;;;;;;22.61;66.86;101495.31;3959224;29;20570;-68
2023/08/17 04:29:01;;;;;;;;;;;;;;;22.61;66.40;101503.59;3967097;29;20096;-68
2023/08/17 04:31:05;;;;;;;;;;;;;;;22.60;66.18;101501.94;3968492;29;20028;-68
2023/08/17 04:33:12;;;;;;;;;;;;;;;22.60;66.87;101498.31;3967423;29;20434;-67
2023/08/17 04:35:15;;;;;;;;;;;;;;;22.60;66.92;101499.19;3958752;29;20025;-68
2023/08/17 04:37:17;;;;;;;;;;;;;;;22.61;67.09;101498.06;3972733;29;19929;-68
2023/08/17 04:39:20;;;;;;;;;;;;;;;22.61;66.61;101500.81;3967217;29;20471;-67
2023/08/17 04:41:21;;;;;;;;;;;;;;;22.62;66.25;101504.44;3957473;29;20308;-67
2023/08/17 04:43:24;;;;;;;;;;;;;;;22.62;66.65;101501.69;3951501;29;20492;-68
2023/08/17 04:45:26;;;;;;;;;;;;;;;22.63;67.06;101501.44;3968422;29;20641;-67
2023/08/17 04:47:31;;;;;;;;;;;;;;;22.64;66.65;101502.28;3967221;29;20017;-68
2023/08/17 04:49:34;;;;;;;;;;;;;;;22.65;66.60;101509.47;3951580;30;20024;-67
2023/08/17 04:51:36;;;;;;;;;;;;;;;22.64;66.13;101494.84;3968606;29;20035;-68
2023/08/17 04:53:37;;;;;;;;;;;;;;;22.66;66.29;101497.38;3973877;29;20027;-67
2023/08/17 04:55:40;;;;;;;;;;;;;;;22.65;66.09;101506.72;3967131;29;20391;-68
2023/08/17 04:57:41;;;;;;;;;;;;;;;22.65;66.12;101499.28;3967955;29;19933;-68
2023/08/17 04:59:45;;;;;;;;;;;;;;;22.66;66.26;101492.72;3965987;29;20016;-68
2023/08/17 05:01:48;;;;;;;;;;;;;;;22.67;66.51;101502.63;3967042;29;19929;-68
2023/08/17 05:03:50;;;;;;;;;;;;;;;22.67;65.98;101499.88;3958028;29;20023;-67
2023/08/17 05:05:52;;;;;;;;;;;;;;;22.68;65.54;101515.31;3966503;29;19934;-67
2023/08/17 05:07:54;;;;;;;;;;;;;;;22.68;65.98;101515.31;3952310;29;20013;-67
2023/08/17 05:09:56;;;;;;;;;;;;;;;22.70;65.37;101517.84;3965894;29;20484;-67
2023/08/17 05:11:59;;;;;;;;;;;;;;;22.70;65.36;101520.59;3951503;29;20041;-67
2023/08/17 05:14:01;;;;;;;;;;;;;;;22.70;65.82;101517.00;3958059;29;20409;-67
2023/08/17 05:16:05;;;;;;;;;;;;;;;22.70;65.65;101517.84;3973232;29;20397;-67
2023/08/17 05:18:07;;;;;;;;;;;;;;;22.68;65.81;101509.81;3972558;29;19933;-68
2023/08/17 05:20:09;;;;;;;;;;;;;;;22.69;65.86;101516.16;3987685;29;20011;-68
2023/08/17 05:22:13;;;;;;;;;;;;;;;22.68;65.02;101515.31;3987152;29;19933;-68
2023/08/17 05:24:15;;;;;;;;;;;;;;;22.70;65.70;101508.75;3981482;29;20020;-68
2023/08/17 05:26:17;;;;;;;;;;;;;;;22.71;65.73;101510.41;3982104;29;20050;-68
2023/08/17 05:28:21;;;;;;;;;;;;;;;22.72;66.01;101517.59;3981967;29;20100;-68
2023/08/17 05:30:23;;;;;;;;;;;;;;;22.73;65.78;101513.75;3967944;29;20024;-68
2023/08/17 05:32:25;;;;;;;;;;;;;;;22.74;65.77;101504.44;3967975;29;20016;-68
2023/08/17 05:34:28;;;;;;;;;;;;;;;22.76;65.29;101503.13;3972270;29;20475;-68
2023/08/17 05:36:31;;;;;;;;;;;;;;;22.77;65.78;101506.69;3968643;29;20579;-68
2023/08/17 05:38:33;;;;;;;;;;;;;;;22.78;65.28;101505.63;3973105;29;19933;-68
2023/08/17 05:40:35;;;;;;;;;;;;;;;22.80;65.67;101506.22;3967113;29;20448;-68
2023/08/17 05:42:37;;;;;;;;;;;;;;;22.80;65.40;101503.47;3956859;29;20028;-68
2023/08/17 05:44:40;;;;;;;;;;;;;;;22.80;65.05;101515.31;3973140;29;20023;-68
2023/08/17 05:46:42;;;;;;;;;;;;;;;22.80;64.42;101520.00;3966510;29;20016;-68
2023/08/17 05:48:44;;;;;;;;;;;;;;;22.80;65.35;101522.75;3966026;29;19930;-71
2023/08/17 05:50:46;;;;;;;;;;;;;;;22.80;64.72;101523.56;3957624;29;20016;-68
2023/08/17 05:52:49;;;;;;;;;;;;;;;22.80;65.21;101536.50;3968193;29;20024;-68
2023/08/17 05:54:51;;;;;;;;;;;;;;;22.80;64.63;101548.34;3967793;29;20052;-68
2023/08/17 05:56:53;;;;;;;;;;;;;;;22.79;64.37;101559.59;3957696;29;20020;-68
2023/08/17 05:58:55;;;;;;;;;;;;;;;22.78;64.85;101567.03;3968714;29;19936;-68
2023/08/17 06:01:06;;;;;;;;;;;;;;;22.79;64.17;101588.00;3969329;29;20033;-67
2023/08/17 06:03:08;;;;;;;;;;;;;;;22.78;63.95;101608.34;3973209;29;20032;-67
2023/08/17 06:05:10;;;;;;;;;;;;;;;22.73;63.74;101619.25;3968194;29;20027;-68
2023/08/17 06:07:12;;;;;;;;;;;;;;;22.66;63.64;101624.00;3968237;29;20024;-67
2023/08/17 06:09:15;;;;;;;;;;;;;;;22.63;63.76;101628.09;3967198;29;20445;-67
2023/08/17 06:11:17;;;;;;;;;;;;;;;22.57;64.38;101623.53;3965197;29;20028;-68
2023/08/17 06:13:19;;;;;;;;;;;;;;;22.55;64.45;101624.81;3968796;29;20362;-68
2023/08/17 06:15:21;;;;;;;;;;;;;;;22.52;64.81;101623.38;3967788;29;20028;-68
2023/08/17 06:17:25;;;;;;;;;;;;;;;22.51;64.62;101610.72;3967593;29;20500;-68
2023/08/17 06:19:27;;;;;;;;;;;;;;;22.50;65.31;101611.78;3963524;29;19937;-68
2023/08/17 06:21:29;;;;;;;;;;;;;;;22.49;65.86;101608.19;3966795;29;20016;-67
2023/08/17 06:23:31;;;;;;;;;;;;;;;22.50;65.99;101604.34;3968962;29;20032;-68
2023/08/17 06:25:34;;;;;;;;;;;;;;;22.52;66.00;101598.59;3970402;29;20024;-68
2023/08/17 06:27:36;;;;;;;;;;;;;;;22.52;65.96;101595.84;3969429;29;20027;-68
2023/08/17 06:29:38;;;;;;;;;;;;;;;22.53;66.05;101596.72;3970110;29;20052;-66
2023/08/17 06:31:39;;;;;;;;;;;;;;;22.55;65.97;101589.88;3970055;29;20016;-67
2023/08/17 06:33:43;;;;;;;;;;;;;;;22.56;66.47;101580.56;3969904;29;20037;-67
2023/08/17 06:35:45;;;;;;;;;;;;;;;22.60;66.00;101572.66;3960262;29;20396;-68
2023/08/17 06:37:47;;;;;;;;;;;;;;;22.62;66.13;101563.09;3970078;29;20924;-68
2023/08/17 06:39:49;;;;;;;;;;;;;;;22.65;66.05;101559.84;3969778;29;20394;-67
2023/08/17 06:41:50;;;;;;;;;;;;;;;22.68;66.13;101569.56;3970036;29;20008;-68
2023/08/17 06:43:52;;;;;;;;;;;;;;;22.71;66.07;101569.09;3970034;29;19929;-68
2023/08/17 06:45:54;;;;;;;;;;;;;;;22.73;65.75;101586.19;3970433;29;20024;-67
2023/08/17 06:47:56;;;;;;;;;;;;;;;22.75;65.49;101584.03;3970165;29;20055;-68
2023/08/17 06:49:59;;;;;;;;;;;;;;;22.76;65.21;101580.22;3969389;29;20401;-67
2023/08/17 06:52:01;;;;;;;;;;;;;;;22.79;65.29;101571.47;3970059;29;20363;-67
2023/08/17 06:54:03;;;;;;;;;;;;;;;22.82;65.51;101583.91;3969657;29;20091;-68
2023/08/17 06:56:05;;;;;;;;;;;;;;;22.87;65.72;101584.06;3967214;29;20031;-68
2023/08/17 06:58:08;;;;;;;;;;;;;;;22.92;65.91;101575.91;3969512;29;20437;-67
2023/08/17 07:00:11;;;;;;;;;;;;;;;22.97;65.52;101570.50;3969325;29;20413;-67
2023/08/17 07:02:13;;;;;;;;;;;;;;;23.02;65.35;101573.41;3969546;29;20020;-67
2023/08/17 07:04:14;;;;;;;;;;;;;;;23.06;65.02;101571.00;3969384;29;20020;-67
2023/08/17 07:06:18;;;;;;;;;;;;;;;23.10;65.15;101577.72;3969435;29;20465;-69
2023/08/17 07:08:20;;;;;;;;;;;;;;;23.13;64.86;101580.00;3969505;29;20506;-68
2023/08/17 07:10:22;;;;;;;;;;;;;;;23.17;64.85;101577.63;3969556;29;20041;-68
2023/08/17 07:12:24;;;;;;;;;;;;;;;23.21;64.71;101576.91;3969675;29;20033;-67
2023/08/17 07:14:27;;;;;;;;;;;;;;;23.25;64.48;101568.97;3969507;29;20040;-67
2023/08/17 07:16:29;;;;;;;;;;;;;;;23.29;64.25;101566.56;3969046;29;20386;-67
2023/08/17 07:18:31;;;;;;;;;;;;;;;23.31;63.93;101576.28;3969833;29;20401;-67
2023/08/17 07:20:33;;;;;;;;;;;;;;;23.34;64.00;101566.69;3969440;29;19960;-67
2023/08/17 07:22:37;;;;;;;;;;;;;;;23.37;64.24;101575.31;3969115;29;20020;-68
2023/08/17 07:24:39;;;;;;;;;;;;;;;23.40;63.97;101579.47;3969432;29;20505;-68
2023/08/17 07:26:42;;;;;;;;;;;;;;;23.41;64.18;101569.31;3969731;29;20358;-68
2023/08/17 07:28:44;;;;;;;;;;;;;;;23.44;63.62;101568.81;3969459;29;20008;-68
2023/08/17 07:30:46;;;;;;;;;;;;;;;23.45;63.85;101576.00;3969165;29;20020;-68
2023/08/17 07:32:48;;;;;;;;;;;;;;;23.46;63.43;101577.69;3973856;29;20418;-67
2023/08/17 07:34:50;;;;;;;;;;;;;;;23.46;63.55;101578.50;3968925;29;19934;-67
2023/08/17 07:36:53;;;;;;;;;;;;;;;23.47;63.69;101571.94;3969892;29;20357;-68
2023/08/17 07:38:57;;;;;;;;;;;;;;;23.50;64.03;101578.88;3969517;29;20517;-68
2023/08/17 07:40:59;;;;;;;;;;;;;;;23.52;63.73;101576.72;3970885;29;20379;-68
2023/08/17 07:43:01;;;;;;;;;;;;;;;23.51;64.07;101570.38;3970481;29;20359;-68
2023/08/17 07:45:05;;;;;;;;;;;;;;;23.54;63.82;101566.25;3970459;29;20646;-68
2023/08/17 07:47:06;;;;;;;;;;;;;;;23.55;63.34;101568.78;3968729;29;20366;-68
2023/08/17 07:49:08;;;;;;;;;;;;;;;23.57;63.98;101569.41;3970485;29;19933;-68
2023/08/17 07:51:09;;;;;;;;;;;;;;;23.60;63.59;101567.22;3969888;29;20040;-68
2023/08/17 07:53:12;;;;;;;;;;;;;;;23.61;63.53;101568.91;3969699;29;20027;-68
2023/08/17 07:55:15;;;;;;;;;;;;;;;23.62;63.58;101563.16;3968710;29;20028;-68
2023/08/17 07:57:17;;;;;;;;;;;;;;;23.63;63.55;101551.00;3968860;29;20028;-68
2023/08/17 07:59:22;;;;;;;;;;;;;;;23.65;63.49;101553.53;3968880;29;20036;-68
2023/08/17 08:01:24;;;;;;;;;;;;;;;23.67;63.71;101556.91;3969553;29;20525;-68
2023/08/17 08:03:26;;;;;;;;;;;;;;;23.68;63.54;101556.66;3969405;29;20016;-68
2023/08/17 08:05:29;;;;;;;;;;;;;;;23.70;62.81;101559.16;3968794;29;20473;-68
2023/08/17 08:07:32;;;;;;;;;;;;;;;23.71;62.57;101553.38;3968748;29;20039;-67
2023/08/17 08:09:34;;;;;;;;;;;;;;;23.74;63.02;101557.56;3969518;29;20460;-67
2023/08/17 08:11:37;;;;;;;;;;;;;;;23.74;63.18;101549.31;3968639;29;20052;-67
2023/08/17 08:13:39;;;;;;;;;;;;;;;23.74;62.87;101550.13;3969053;29;20036;-67
2023/08/17 08:15:41;;;;;;;;;;;;;;;23.79;63.33;101554.09;3968713;29;20367;-67
2023/08/17 08:17:43;;;;;;;;;;;;;;;23.81;62.74;101544.50;3959291;29;20016;-67
2023/08/17 08:19:46;;;;;;;;;;;;;;;23.83;62.42;101545.06;3958747;29;20049;-67
2023/08/17 08:21:48;;;;;;;;;;;;;;;23.85;62.31;101545.69;3968984;29;19929;-67
2023/08/17 08:23:49;;;;;;;;;;;;;;;23.87;62.74;101540.78;3968733;29;20028;-67
2023/08/17 08:25:52;;;;;;;;;;;;;;;23.90;62.47;101544.94;3968788;29;20659;-68
2023/08/17 08:27:55;;;;;;;;;;;;;;;23.91;62.50;101541.94;3968767;29;20016;-66
2023/08/17 08:29:57;;;;;;;;;;;;;;;23.96;62.82;101543.97;3968455;29;20048;-67
2023/08/17 08:32:02;;;;;;;;;;;;;;;23.99;62.58;101537.94;3973214;29;20401;-67
2023/08/17 08:34:04;;;;;;;;;;;;;;;24.02;62.91;101529.19;3968741;29;20028;-67
2023/08/17 08:36:06;;;;;;;;;;;;;;;24.06;62.79;101535.03;3969195;29;20374;-66
2023/08/17 08:38:09;;;;;;;;;;;;;;;24.07;62.88;101526.50;3968025;29;20020;-67
2023/08/17 08:40:12;;;;;;;;;;;;;;;24.11;62.76;101530.44;3968116;29;20035;-66
2023/08/17 08:42:13;;;;;;;;;;;;;;;24.15;62.20;101527.19;3968761;29;20396;-67
2023/08/17 08:44:17;;;;;;;;;;;;;;;24.19;62.26;101520.09;3967679;29;19933;-67
2023/08/17 08:46:19;;;;;;;;;;;;;;;24.21;61.94;101517.91;3973664;29;20738;-68
2023/08/17 08:48:21;;;;;;;;;;;;;;;24.24;61.71;101511.91;3952446;29;20308;-68
2023/08/17 08:50:23;;;;;;;;;;;;;;;24.25;62.25;101516.34;3967651;29;20036;-68
2023/08/17 08:52:27;;;;;;;;;;;;;;;24.25;62.14;101514.41;3969243;29;20440;-68
2023/08/17 08:54:29;;;;;;;;;;;;;;;24.27;62.21;101508.63;3968049;29;20011;-67
2023/08/17 08:56:34;;;;;;;;;;;;;;;24.27;62.05;101503.13;3967590;29;20417;-67
2023/08/17 08:58:36;;;;;;;;;;;;;;;24.29;62.31;101514.72;3968262;29;20047;-67
2023/08/17 09:00:39;;;;;;;;;;;;;;;24.29;62.08;101503.69;3968002;29;20037;-67
2023/08/17 09:02:42;;;;;;;;;;;;;;;24.27;62.07;101503.94;3968090;29;20019;-68
2023/08/17 09:04:43;;;;;;;;;;;;;;;24.27;62.34;101492.91;3967625;29;20016;-69
2023/08/17 09:06:45;;;;;;;;;;;;;;;24.26;62.49;101493.16;3967750;29;20025;-67
2023/08/17 09:08:47;;;;;;;;;;;;;;;24.25;62.65;101489.56;3968348;29;20440;-67
2023/08/17 09:10:49;;;;;;;;;;;;;;;24.25;62.59;101492.31;3967103;29;20012;-68
2023/08/17 09:12:51;;;;;;;;;;;;;;;24.24;62.94;101489.81;3967692;29;20015;-68
2023/08/17 09:14:52;;;;;;;;;;;;;;;24.23;62.97;101494.50;3968087;29;20032;-68
2023/08/17 09:16:58;;;;;;;;;;;;;;;24.23;62.76;101493.66;3967548;29;20554;-68
2023/08/17 09:19:00;;;;;;;;;;;;;;;24.23;62.69;101490.88;3968335;29;20027;-68
2023/08/17 09:21:04;;;;;;;;;;;;;;;24.23;62.74;101497.28;3968120;29;20409;-68
2023/08/17 09:23:11;;;;;;;;;;;;;;;24.25;62.93;101497.03;3968402;29;19975;-68
2023/08/17 09:25:22;;;;;;;;;;;;;;;24.25;62.99;101489.56;3967863;29;20016;-66
2023/08/17 09:27:24;;;;;;;;;;;;;;;24.28;63.46;101496.53;3967762;29;20028;-69
2023/08/17 09:29:26;;;;;;;;;;;;;;;24.31;63.68;101489.63;3967449;29;20016;-65
2023/08/17 09:31:31;;;;;;;;;;;;;;;24.34;63.45;101486.38;3967973;29;20060;-68
2023/08/17 09:33:35;;;;;;;;;;;;;;;24.38;63.46;101482.88;3967562;29;20024;-68
2023/08/17 09:35:37;;;;;;;;;;;;;;;24.40;63.35;101483.44;3968522;29;20452;-68
2023/08/17 09:37:40;;;;;;;;;;;;;;;24.45;63.03;101491.81;3967840;29;20020;-68
2023/08/17 09:39:42;;;;;;;;;;;;;;;24.47;63.09;101491.56;3967693;29;20404;-68
2023/08/17 09:41:44;;;;;;;;;;;;;;;24.50;63.12;101490.22;3967653;29;20108;-68
2023/08/17 09:43:46;;;;;;;;;;;;;;;24.52;63.26;101479.78;3967622;29;19937;-67
2023/08/17 09:45:49;;;;;;;;;;;;;;;24.54;63.13;101480.34;3967059;29;20012;-68
2023/08/17 09:47:51;;;;;;;;;;;;;;;24.56;62.86;101483.69;3968045;29;20020;-67
2023/08/17 09:49:55;;;;;;;;;;;;;;;24.58;62.43;101484.31;3969852;29;20444;-68
2023/08/17 09:51:58;;;;;;;;;;;;;;;24.57;62.88;101477.94;3968341;29;20774;-68
2023/08/17 09:54:00;;;;;;;;;;;;;;;24.59;62.98;101480.44;3969698;29;20020;-67
2023/08/17 09:56:02;;;;;;;;;;;;;;;24.61;63.05;101483.81;3971032;29;20028;-67
2023/08/17 09:58:04;;;;;;;;;;;;;;;24.63;62.62;101485.22;3970426;29;20067;-67
2023/08/17 10:00:07;;;;;;;;;;;;;;;24.64;62.75;101477.78;3970356;29;20484;-67
2023/08/17 10:02:11;;;;;;;;;;;;;;;24.66;62.68;101475.59;3970962;29;20004;-66
2023/08/17 10:04:13;;;;;;;;;;;;;;;24.67;62.85;101470.91;3970355;29;19964;-66
2023/08/17 10:06:18;;;;;;;;;;;;;;;24.68;62.72;101473.41;3969541;29;20566;-68
2023/08/17 10:08:20;;;;;;;;;;;;;;;24.69;62.76;101472.31;3970303;29;20020;-68
2023/08/17 10:10:23;;;;;;;;;;;;;;;24.69;62.67;101468.75;3970480;29;20028;-68
2023/08/17 10:12:27;;;;;;;;;;;;;;;24.69;63.00;101469.56;3971907;29;20486;-68
2023/08/17 10:14:31;;;;;;;;;;;;;;;24.68;63.09;101465.13;3971218;29;20024;-68
2023/08/17 10:16:34;;;;;;;;;;;;;;;24.68;63.02;101458.78;3970062;29;20023;-67
2023/08/17 10:18:36;;;;;;;;;;;;;;;24.68;62.84;101464.28;3960424;29;19953;-67
2023/08/17 10:20:38;;;;;;;;;;;;;;;24.68;62.81;101459.59;3969267;29;20381;-67
2023/08/17 10:22:44;;;;;;;;;;;;;;;24.68;62.87;101465.13;3969751;29;20016;-67
2023/08/17 10:24:47;;;;;;;;;;;;;;;24.67;63.01;101462.59;3970331;29;20007;-69
2023/08/17 10:26:48;;;;;;;;;;;;;;;24.67;63.26;101459.84;3969459;29;20021;-67
2023/08/17 10:28:51;;;;;;;;;;;;;;;24.67;63.39;101457.09;3969921;29;20032;-67